sensor_id;sensor_type;location;lat;lon;timestamp;P1;durP1;ratioP1;P2;durP2;ratioP2
63050;SDS011;49136;47.416;19.402;2022-08-21T00:01:45;18.40;;;10.38;;
63050;SDS011;49136;47.416;19.402;2022-08-21T00:04:10;21.67;;;10.20;;
63050;SDS011;49136;47.416;19.402;2022-08-21T00:06:36;20.45;;;11.10;;
63050;SDS011;49136;47.416;19.402;2022-08-21T00:09:03;20.88;;;11.15;;
63050;SDS011;49136;47.416;19.402;2022-08-21T00:11:31;19.17;;;11.27;;
63050;SDS011;49136;47.416;19.402;2022-08-21T00:13:56;21.58;;;9.93;;
63050;SDS011;49136;47.416;19.402;2022-08-21T00:16:22;18.75;;;10.55;;
63050;SDS011;49136;47.416;19.402;2022-08-21T00:18:48;21.95;;;11.38;;
63050;SDS011;49136;47.416;19.402;2022-08-21T00:21:14;19.80;;;10.70;;
63050;SDS011;49136;47.416;19.402;2022-08-21T00:23:40;21.35;;;11.88;;
63050;SDS011;49136;47.416;19.402;2022-08-21T00:26:06;21.85;;;11.18;;
63050;SDS011;49136;47.416;19.402;2022-08-21T00:28:32;23.67;;;11.60;;
63050;SDS011;49136;47.416;19.402;2022-08-21T00:30:58;20.98;;;11.55;;
63050;SDS011;49136;47.416;19.402;2022-08-21T00:33:24;21.67;;;11.45;;
63050;SDS011;49136;47.416;19.402;2022-08-21T00:35:50;22.85;;;11.40;;
63050;SDS011;49136;47.416;19.402;2022-08-21T00:38:16;22.85;;;10.85;;
63050;SDS011;49136;47.416;19.402;2022-08-21T00:40:50;19.23;;;11.25;;
63050;SDS011;49136;47.416;19.402;2022-08-21T00:43:20;21.42;;;11.60;;
63050;SDS011;49136;47.416;19.402;2022-08-21T00:45:47;22.23;;;11.73;;
63050;SDS011;49136;47.416;19.402;2022-08-21T00:48:13;24.02;;;12.32;;
63050;SDS011;49136;47.416;19.402;2022-08-21T00:50:40;28.52;;;12.02;;
63050;SDS011;49136;47.416;19.402;2022-08-21T00:53:09;22.90;;;12.48;;
63050;SDS011;49136;47.416;19.402;2022-08-21T00:55:36;23.77;;;12.88;;
63050;SDS011;49136;47.416;19.402;2022-08-21T00:58:03;28.77;;;12.73;;
63050;SDS011;49136;47.416;19.402;2022-08-21T01:00:33;25.42;;;12.73;;
63050;SDS011;49136;47.416;19.402;2022-08-21T01:03:04;23.90;;;12.02;;
63050;SDS011;49136;47.416;19.402;2022-08-21T01:05:36;24.90;;;13.77;;
63050;SDS011;49136;47.416;19.402;2022-08-21T01:08:02;22.80;;;12.95;;
63050;SDS011;49136;47.416;19.402;2022-08-21T01:10:28;23.25;;;10.95;;
63050;SDS011;49136;47.416;19.402;2022-08-21T01:12:55;23.50;;;12.27;;
63050;SDS011;49136;47.416;19.402;2022-08-21T01:15:21;25.67;;;12.07;;
63050;SDS011;49136;47.416;19.402;2022-08-21T01:17:49;22.70;;;12.13;;
63050;SDS011;49136;47.416;19.402;2022-08-21T01:20:15;21.30;;;12.15;;
63050;SDS011;49136;47.416;19.402;2022-08-21T01:22:41;21.08;;;12.07;;
63050;SDS011;49136;47.416;19.402;2022-08-21T01:25:08;22.17;;;11.18;;
63050;SDS011;49136;47.416;19.402;2022-08-21T01:27:34;19.98;;;11.32;;
63050;SDS011;49136;47.416;19.402;2022-08-21T01:30:04;20.88;;;11.82;;
63050;SDS011;49136;47.416;19.402;2022-08-21T01:32:35;20.15;;;11.25;;
63050;SDS011;49136;47.416;19.402;2022-08-21T01:35:00;17.55;;;9.93;;
63050;SDS011;49136;47.416;19.402;2022-08-21T01:37:26;18.17;;;10.32;;
63050;SDS011;49136;47.416;19.402;2022-08-21T01:39:51;20.27;;;11.40;;
63050;SDS011;49136;47.416;19.402;2022-08-21T01:42:17;20.23;;;10.45;;
63050;SDS011;49136;47.416;19.402;2022-08-21T01:44:43;19.15;;;9.65;;
63050;SDS011;49136;47.416;19.402;2022-08-21T01:47:10;18.25;;;9.30;;
63050;SDS011;49136;47.416;19.402;2022-08-21T01:49:37;19.23;;;9.77;;
63050;SDS011;49136;47.416;19.402;2022-08-21T01:52:04;16.85;;;9.65;;
63050;SDS011;49136;47.416;19.402;2022-08-21T01:54:30;23.40;;;9.15;;
63050;SDS011;49136;47.416;19.402;2022-08-21T01:56:56;17.08;;;9.68;;
63050;SDS011;49136;47.416;19.402;2022-08-21T01:59:24;17.77;;;9.70;;
63050;SDS011;49136;47.416;19.402;2022-08-21T02:01:49;16.45;;;9.25;;
63050;SDS011;49136;47.416;19.402;2022-08-21T02:04:15;19.48;;;8.63;;
63050;SDS011;49136;47.416;19.402;2022-08-21T02:06:41;14.45;;;8.48;;
63050;SDS011;49136;47.416;19.402;2022-08-21T02:09:08;17.90;;;9.00;;
63050;SDS011;49136;47.416;19.402;2022-08-21T02:11:35;16.48;;;9.07;;
63050;SDS011;49136;47.416;19.402;2022-08-21T02:14:01;18.77;;;8.77;;
63050;SDS011;49136;47.416;19.402;2022-08-21T02:16:27;15.20;;;9.13;;
63050;SDS011;49136;47.416;19.402;2022-08-21T02:18:52;16.98;;;9.60;;
63050;SDS011;49136;47.416;19.402;2022-08-21T02:21:18;17.00;;;9.18;;
63050;SDS011;49136;47.416;19.402;2022-08-21T02:23:43;18.77;;;11.10;;
63050;SDS011;49136;47.416;19.402;2022-08-21T02:26:09;17.75;;;8.88;;
63050;SDS011;49136;47.416;19.402;2022-08-21T02:28:35;17.45;;;9.50;;
63050;SDS011;49136;47.416;19.402;2022-08-21T02:31:01;18.80;;;9.98;;
63050;SDS011;49136;47.416;19.402;2022-08-21T02:33:27;20.92;;;10.15;;
63050;SDS011;49136;47.416;19.402;2022-08-21T02:35:53;17.10;;;9.00;;
63050;SDS011;49136;47.416;19.402;2022-08-21T02:38:20;17.20;;;9.63;;
63050;SDS011;49136;47.416;19.402;2022-08-21T02:40:51;23.38;;;9.15;;
63050;SDS011;49136;47.416;19.402;2022-08-21T02:43:19;18.83;;;9.68;;
63050;SDS011;49136;47.416;19.402;2022-08-21T02:45:46;17.20;;;9.82;;
63050;SDS011;49136;47.416;19.402;2022-08-21T02:48:14;17.83;;;9.65;;
63050;SDS011;49136;47.416;19.402;2022-08-21T02:50:43;19.10;;;9.90;;
63050;SDS011;49136;47.416;19.402;2022-08-21T02:53:12;18.42;;;10.05;;
63050;SDS011;49136;47.416;19.402;2022-08-21T02:55:41;18.35;;;9.85;;
63050;SDS011;49136;47.416;19.402;2022-08-21T02:58:12;18.60;;;10.52;;
63050;SDS011;49136;47.416;19.402;2022-08-21T03:00:39;21.92;;;10.27;;
63050;SDS011;49136;47.416;19.402;2022-08-21T03:03:05;16.15;;;9.60;;
63050;SDS011;49136;47.416;19.402;2022-08-21T03:05:31;16.80;;;9.95;;
63050;SDS011;49136;47.416;19.402;2022-08-21T03:07:59;22.42;;;10.20;;
63050;SDS011;49136;47.416;19.402;2022-08-21T03:10:26;22.50;;;11.23;;
63050;SDS011;49136;47.416;19.402;2022-08-21T03:12:52;20.27;;;9.60;;
63050;SDS011;49136;47.416;19.402;2022-08-21T03:15:19;18.55;;;9.98;;
63050;SDS011;49136;47.416;19.402;2022-08-21T03:17:48;26.70;;;11.55;;
63050;SDS011;49136;47.416;19.402;2022-08-21T03:20:15;23.73;;;11.85;;
63050;SDS011;49136;47.416;19.402;2022-08-21T03:22:42;24.15;;;12.23;;
63050;SDS011;49136;47.416;19.402;2022-08-21T03:25:08;27.50;;;11.35;;
63050;SDS011;49136;47.416;19.402;2022-08-21T03:27:35;20.17;;;10.43;;
63050;SDS011;49136;47.416;19.402;2022-08-21T03:30:02;17.92;;;9.50;;
63050;SDS011;49136;47.416;19.402;2022-08-21T03:32:30;23.35;;;10.93;;
63050;SDS011;49136;47.416;19.402;2022-08-21T03:34:56;21.52;;;11.32;;
63050;SDS011;49136;47.416;19.402;2022-08-21T03:37:22;23.50;;;11.68;;
63050;SDS011;49136;47.416;19.402;2022-08-21T03:39:49;19.38;;;10.38;;
63050;SDS011;49136;47.416;19.402;2022-08-21T03:42:15;21.80;;;11.15;;
63050;SDS011;49136;47.416;19.402;2022-08-21T03:44:40;20.92;;;11.32;;
63050;SDS011;49136;47.416;19.402;2022-08-21T03:47:05;25.90;;;10.98;;
63050;SDS011;49136;47.416;19.402;2022-08-21T03:49:31;23.08;;;12.00;;
63050;SDS011;49136;47.416;19.402;2022-08-21T03:51:56;22.35;;;10.63;;
63050;SDS011;49136;47.416;19.402;2022-08-21T03:54:22;22.42;;;9.85;;
63050;SDS011;49136;47.416;19.402;2022-08-21T03:56:47;20.35;;;9.82;;
63050;SDS011;49136;47.416;19.402;2022-08-21T03:59:12;22.02;;;10.25;;
63050;SDS011;49136;47.416;19.402;2022-08-21T04:01:38;22.58;;;10.70;;
63050;SDS011;49136;47.416;19.402;2022-08-21T04:04:04;20.15;;;9.52;;
63050;SDS011;49136;47.416;19.402;2022-08-21T04:06:30;16.95;;;8.95;;
63050;SDS011;49136;47.416;19.402;2022-08-21T04:08:56;21.20;;;9.57;;
63050;SDS011;49136;47.416;19.402;2022-08-21T04:11:21;20.55;;;10.05;;
63050;SDS011;49136;47.416;19.402;2022-08-21T04:13:47;16.45;;;7.95;;
63050;SDS011;49136;47.416;19.402;2022-08-21T04:16:12;17.92;;;8.60;;
63050;SDS011;49136;47.416;19.402;2022-08-21T04:18:38;13.98;;;7.30;;
63050;SDS011;49136;47.416;19.402;2022-08-21T04:21:04;16.17;;;7.40;;
63050;SDS011;49136;47.416;19.402;2022-08-21T04:23:31;16.75;;;7.78;;
63050;SDS011;49136;47.416;19.402;2022-08-21T04:25:56;18.67;;;8.13;;
63050;SDS011;49136;47.416;19.402;2022-08-21T04:28:23;15.60;;;7.90;;
63050;SDS011;49136;47.416;19.402;2022-08-21T04:30:50;18.73;;;8.98;;
63050;SDS011;49136;47.416;19.402;2022-08-21T04:33:17;15.57;;;7.60;;
63050;SDS011;49136;47.416;19.402;2022-08-21T04:35:42;15.90;;;8.13;;
63050;SDS011;49136;47.416;19.402;2022-08-21T04:38:08;19.13;;;8.35;;
63050;SDS011;49136;47.416;19.402;2022-08-21T04:40:33;17.75;;;7.53;;
63050;SDS011;49136;47.416;19.402;2022-08-21T04:43:03;18.75;;;7.93;;
63050;SDS011;49136;47.416;19.402;2022-08-21T04:47:59;14.15;;;7.07;;
63050;SDS011;49136;47.416;19.402;2022-08-21T04:50:41;15.10;;;7.28;;
63050;SDS011;49136;47.416;19.402;2022-08-21T04:53:34;16.65;;;7.50;;
63050;SDS011;49136;47.416;19.402;2022-08-21T04:56:10;13.77;;;6.88;;
63050;SDS011;49136;47.416;19.402;2022-08-21T04:58:38;14.65;;;7.63;;
63050;SDS011;49136;47.416;19.402;2022-08-21T05:01:07;18.85;;;8.38;;
63050;SDS011;49136;47.416;19.402;2022-08-21T05:03:37;17.75;;;7.65;;
63050;SDS011;49136;47.416;19.402;2022-08-21T05:06:05;20.13;;;7.63;;
63050;SDS011;49136;47.416;19.402;2022-08-21T05:08:33;14.60;;;7.32;;
63050;SDS011;49136;47.416;19.402;2022-08-21T05:10:59;14.25;;;7.00;;
63050;SDS011;49136;47.416;19.402;2022-08-21T05:13:24;15.45;;;7.10;;
63050;SDS011;49136;47.416;19.402;2022-08-21T05:15:50;15.82;;;8.23;;
63050;SDS011;49136;47.416;19.402;2022-08-21T05:18:15;14.38;;;7.55;;
63050;SDS011;49136;47.416;19.402;2022-08-21T05:20:41;18.70;;;7.50;;
63050;SDS011;49136;47.416;19.402;2022-08-21T05:23:08;14.98;;;7.18;;
63050;SDS011;49136;47.416;19.402;2022-08-21T05:25:36;13.02;;;7.15;;
63050;SDS011;49136;47.416;19.402;2022-08-21T05:28:02;11.93;;;6.78;;
63050;SDS011;49136;47.416;19.402;2022-08-21T05:30:28;12.90;;;6.55;;
63050;SDS011;49136;47.416;19.402;2022-08-21T05:32:58;14.35;;;7.28;;
63050;SDS011;49136;47.416;19.402;2022-08-21T05:35:24;18.02;;;8.05;;
63050;SDS011;49136;47.416;19.402;2022-08-21T05:37:50;15.55;;;7.45;;
63050;SDS011;49136;47.416;19.402;2022-08-21T05:40:16;15.80;;;7.38;;
63050;SDS011;49136;47.416;19.402;2022-08-21T05:42:42;16.60;;;7.47;;
63050;SDS011;49136;47.416;19.402;2022-08-21T05:45:08;18.27;;;7.50;;
63050;SDS011;49136;47.416;19.402;2022-08-21T05:47:33;14.43;;;7.63;;
63050;SDS011;49136;47.416;19.402;2022-08-21T05:49:59;18.02;;;8.15;;
63050;SDS011;49136;47.416;19.402;2022-08-21T05:52:24;16.23;;;7.53;;
63050;SDS011;49136;47.416;19.402;2022-08-21T05:54:49;15.05;;;7.03;;
63050;SDS011;49136;47.416;19.402;2022-08-21T05:57:15;14.32;;;7.35;;
63050;SDS011;49136;47.416;19.402;2022-08-21T05:59:41;13.52;;;6.18;;
63050;SDS011;49136;47.416;19.402;2022-08-21T06:02:06;16.77;;;6.55;;
63050;SDS011;49136;47.416;19.402;2022-08-21T06:04:39;13.93;;;7.32;;
63050;SDS011;49136;47.416;19.402;2022-08-21T06:07:05;16.50;;;5.97;;
63050;SDS011;49136;47.416;19.402;2022-08-21T06:09:31;14.57;;;7.50;;
63050;SDS011;49136;47.416;19.402;2022-08-21T06:11:57;12.95;;;6.53;;
63050;SDS011;49136;47.416;19.402;2022-08-21T06:14:22;15.27;;;6.63;;
63050;SDS011;49136;47.416;19.402;2022-08-21T06:16:47;16.85;;;7.55;;
63050;SDS011;49136;47.416;19.402;2022-08-21T06:19:13;18.75;;;8.27;;
63050;SDS011;49136;47.416;19.402;2022-08-21T06:21:38;11.85;;;7.10;;
63050;SDS011;49136;47.416;19.402;2022-08-21T06:24:04;16.02;;;7.63;;
63050;SDS011;49136;47.416;19.402;2022-08-21T06:26:30;13.07;;;7.13;;
63050;SDS011;49136;47.416;19.402;2022-08-21T06:28:56;13.52;;;7.70;;
63050;SDS011;49136;47.416;19.402;2022-08-21T06:31:23;18.42;;;7.75;;
63050;SDS011;49136;47.416;19.402;2022-08-21T06:33:50;13.98;;;7.10;;
63050;SDS011;49136;47.416;19.402;2022-08-21T06:36:16;17.05;;;7.13;;
63050;SDS011;49136;47.416;19.402;2022-08-21T06:38:42;14.63;;;6.75;;
63050;SDS011;49136;47.416;19.402;2022-08-21T06:41:08;12.63;;;6.40;;
63050;SDS011;49136;47.416;19.402;2022-08-21T06:43:33;12.48;;;6.70;;
63050;SDS011;49136;47.416;19.402;2022-08-21T06:45:59;12.77;;;6.50;;
63050;SDS011;49136;47.416;19.402;2022-08-21T06:48:25;15.32;;;6.00;;
63050;SDS011;49136;47.416;19.402;2022-08-21T06:50:50;16.63;;;6.85;;
63050;SDS011;49136;47.416;19.402;2022-08-21T06:53:17;24.55;;;7.38;;
63050;SDS011;49136;47.416;19.402;2022-08-21T06:55:45;13.40;;;6.75;;
63050;SDS011;49136;47.416;19.402;2022-08-21T06:58:11;19.08;;;7.40;;
63050;SDS011;49136;47.416;19.402;2022-08-21T07:00:41;13.50;;;6.57;;
63050;SDS011;49136;47.416;19.402;2022-08-21T07:03:15;11.98;;;6.32;;
63050;SDS011;49136;47.416;19.402;2022-08-21T07:05:45;13.73;;;6.35;;
63050;SDS011;49136;47.416;19.402;2022-08-21T07:08:10;16.10;;;7.50;;
63050;SDS011;49136;47.416;19.402;2022-08-21T07:10:35;12.35;;;7.00;;
63050;SDS011;49136;47.416;19.402;2022-08-21T07:13:01;14.10;;;6.97;;
63050;SDS011;49136;47.416;19.402;2022-08-21T07:15:27;15.73;;;6.75;;
63050;SDS011;49136;47.416;19.402;2022-08-21T07:17:55;12.18;;;6.53;;
63050;SDS011;49136;47.416;19.402;2022-08-21T07:20:21;15.45;;;6.45;;
63050;SDS011;49136;47.416;19.402;2022-08-21T07:22:47;11.63;;;5.82;;
63050;SDS011;49136;47.416;19.402;2022-08-21T07:25:12;17.20;;;6.63;;
63050;SDS011;49136;47.416;19.402;2022-08-21T07:27:38;16.70;;;7.32;;
63050;SDS011;49136;47.416;19.402;2022-08-21T07:30:04;13.13;;;6.72;;
63050;SDS011;49136;47.416;19.402;2022-08-21T07:32:30;13.85;;;6.90;;
63050;SDS011;49136;47.416;19.402;2022-08-21T07:34:55;12.15;;;6.88;;
63050;SDS011;49136;47.416;19.402;2022-08-21T07:37:21;12.57;;;6.57;;
63050;SDS011;49136;47.416;19.402;2022-08-21T07:39:46;10.57;;;5.80;;
63050;SDS011;49136;47.416;19.402;2022-08-21T07:42:14;10.85;;;6.18;;
63050;SDS011;49136;47.416;19.402;2022-08-21T07:44:39;12.98;;;6.55;;
63050;SDS011;49136;47.416;19.402;2022-08-21T07:47:05;10.48;;;5.88;;
63050;SDS011;49136;47.416;19.402;2022-08-21T07:49:30;13.00;;;5.95;;
63050;SDS011;49136;47.416;19.402;2022-08-21T07:51:56;9.35;;;4.82;;
63050;SDS011;49136;47.416;19.402;2022-08-21T07:54:22;14.48;;;7.20;;
63050;SDS011;49136;47.416;19.402;2022-08-21T07:56:47;11.77;;;5.80;;
63050;SDS011;49136;47.416;19.402;2022-08-21T07:59:12;10.75;;;4.68;;
63050;SDS011;49136;47.416;19.402;2022-08-21T08:01:38;12.50;;;5.78;;
63050;SDS011;49136;47.416;19.402;2022-08-21T08:04:03;12.50;;;6.03;;
63050;SDS011;49136;47.416;19.402;2022-08-21T08:06:29;9.57;;;5.90;;
63050;SDS011;49136;47.416;19.402;2022-08-21T08:08:55;10.77;;;5.60;;
63050;SDS011;49136;47.416;19.402;2022-08-21T08:11:21;10.27;;;5.95;;
63050;SDS011;49136;47.416;19.402;2022-08-21T08:13:48;10.73;;;5.30;;
63050;SDS011;49136;47.416;19.402;2022-08-21T08:16:16;10.75;;;5.38;;
63050;SDS011;49136;47.416;19.402;2022-08-21T08:18:42;10.07;;;4.47;;
63050;SDS011;49136;47.416;19.402;2022-08-21T08:21:09;9.40;;;5.55;;
63050;SDS011;49136;47.416;19.402;2022-08-21T08:23:35;9.52;;;5.15;;
63050;SDS011;49136;47.416;19.402;2022-08-21T08:26:00;10.90;;;5.85;;
63050;SDS011;49136;47.416;19.402;2022-08-21T08:28:27;10.27;;;5.15;;
63050;SDS011;49136;47.416;19.402;2022-08-21T08:30:54;9.43;;;5.05;;
63050;SDS011;49136;47.416;19.402;2022-08-21T08:33:20;7.70;;;4.95;;
63050;SDS011;49136;47.416;19.402;2022-08-21T08:35:46;8.25;;;4.85;;
63050;SDS011;49136;47.416;19.402;2022-08-21T08:38:14;7.30;;;4.75;;
63050;SDS011;49136;47.416;19.402;2022-08-21T08:43:31;12.25;;;6.07;;
63050;SDS011;49136;47.416;19.402;2022-08-21T08:45:58;6.57;;;4.20;;
63050;SDS011;49136;47.416;19.402;2022-08-21T08:48:36;7.97;;;5.40;;
63050;SDS011;49136;47.416;19.402;2022-08-21T08:51:09;8.57;;;4.88;;
63050;SDS011;49136;47.416;19.402;2022-08-21T08:53:52;7.70;;;4.82;;
63050;SDS011;49136;47.416;19.402;2022-08-21T08:56:22;8.07;;;4.82;;
63050;SDS011;49136;47.416;19.402;2022-08-21T08:58:52;7.07;;;4.65;;
63050;SDS011;49136;47.416;19.402;2022-08-21T09:01:22;11.88;;;5.65;;
63050;SDS011;49136;47.416;19.402;2022-08-21T09:03:47;8.20;;;5.20;;
63050;SDS011;49136;47.416;19.402;2022-08-21T09:09:31;10.40;;;5.85;;
63050;SDS011;49136;47.416;19.402;2022-08-21T09:25:53;8.85;;;5.15;;
63050;SDS011;49136;47.416;19.402;2022-08-21T09:28:25;10.52;;;5.22;;
63050;SDS011;49136;47.416;19.402;2022-08-21T09:30:53;7.25;;;4.68;;
63050;SDS011;49136;47.416;19.402;2022-08-21T09:33:20;8.15;;;5.32;;
63050;SDS011;49136;47.416;19.402;2022-08-21T09:35:52;8.77;;;5.70;;
63050;SDS011;49136;47.416;19.402;2022-08-21T09:38:27;10.00;;;6.05;;
63050;SDS011;49136;47.416;19.402;2022-08-21T09:40:58;8.73;;;5.40;;
63050;SDS011;49136;47.416;19.402;2022-08-21T09:43:34;9.38;;;5.25;;
63050;SDS011;49136;47.416;19.402;2022-08-21T09:46:11;7.97;;;5.28;;
63050;SDS011;49136;47.416;19.402;2022-08-21T09:48:47;8.00;;;4.97;;
63050;SDS011;49136;47.416;19.402;2022-08-21T09:51:20;8.57;;;5.10;;
63050;SDS011;49136;47.416;19.402;2022-08-21T09:53:58;9.82;;;5.80;;
63050;SDS011;49136;47.416;19.402;2022-08-21T09:56:38;9.80;;;5.20;;
63050;SDS011;49136;47.416;19.402;2022-08-21T09:59:35;8.90;;;5.00;;
63050;SDS011;49136;47.416;19.402;2022-08-21T10:02:14;8.77;;;5.47;;
63050;SDS011;49136;47.416;19.402;2022-08-21T10:04:51;10.10;;;5.32;;
63050;SDS011;49136;47.416;19.402;2022-08-21T10:07:20;9.18;;;5.40;;
63050;SDS011;49136;47.416;19.402;2022-08-21T10:09:57;9.20;;;5.18;;
63050;SDS011;49136;47.416;19.402;2022-08-21T10:12:26;10.80;;;5.15;;
63050;SDS011;49136;47.416;19.402;2022-08-21T10:18:08;14.18;;;5.85;;
63050;SDS011;49136;47.416;19.402;2022-08-21T10:40:28;6.75;;;4.05;;
63050;SDS011;49136;47.416;19.402;2022-08-21T10:48:35;7.70;;;4.55;;
63050;SDS011;49136;47.416;19.402;2022-08-21T10:51:10;7.38;;;5.20;;
63050;SDS011;49136;47.416;19.402;2022-08-21T10:56:30;11.48;;;5.07;;
63050;SDS011;49136;47.416;19.402;2022-08-21T11:04:34;12.13;;;5.93;;
63050;SDS011;49136;47.416;19.402;2022-08-21T11:07:12;9.85;;;5.75;;
63050;SDS011;49136;47.416;19.402;2022-08-21T11:09:45;8.73;;;4.70;;
63050;SDS011;49136;47.416;19.402;2022-08-21T11:26:34;9.82;;;4.68;;
63050;SDS011;49136;47.416;19.402;2022-08-21T11:40:07;7.72;;;4.97;;
63050;SDS011;49136;47.416;19.402;2022-08-21T11:42:58;8.60;;;4.95;;
63050;SDS011;49136;47.416;19.402;2022-08-21T11:45:31;9.25;;;5.35;;
63050;SDS011;49136;47.416;19.402;2022-08-21T11:50:51;11.10;;;5.65;;
63050;SDS011;49136;47.416;19.402;2022-08-21T11:53:20;10.50;;;7.47;;
63050;SDS011;49136;47.416;19.402;2022-08-21T11:56:00;11.55;;;6.13;;
63050;SDS011;49136;47.416;19.402;2022-08-21T11:58:35;8.75;;;5.60;;
63050;SDS011;49136;47.416;19.402;2022-08-21T12:01:30;7.22;;;4.80;;
63050;SDS011;49136;47.416;19.402;2022-08-21T12:04:01;7.30;;;5.15;;
63050;SDS011;49136;47.416;19.402;2022-08-21T12:09:08;8.48;;;5.35;;
63050;SDS011;49136;47.416;19.402;2022-08-21T12:11:46;8.68;;;5.32;;
63050;SDS011;49136;47.416;19.402;2022-08-21T12:14:16;10.60;;;5.70;;
63050;SDS011;49136;47.416;19.402;2022-08-21T12:16:44;12.32;;;6.63;;
63050;SDS011;49136;47.416;19.402;2022-08-21T12:24:33;10.05;;;5.15;;
63050;SDS011;49136;47.416;19.402;2022-08-21T12:30:00;9.57;;;5.60;;
63050;SDS011;49136;47.416;19.402;2022-08-21T12:32:45;8.85;;;5.25;;
63050;SDS011;49136;47.416;19.402;2022-08-21T12:35:21;11.75;;;5.40;;
63050;SDS011;49136;47.416;19.402;2022-08-21T12:40:43;9.30;;;5.55;;
63050;SDS011;49136;47.416;19.402;2022-08-21T12:43:15;7.80;;;4.88;;
63050;SDS011;49136;47.416;19.402;2022-08-21T12:45:46;16.38;;;7.32;;
63050;SDS011;49136;47.416;19.402;2022-08-21T12:48:16;10.57;;;6.13;;
63050;SDS011;49136;47.416;19.402;2022-08-21T12:53:45;9.35;;;6.00;;
63050;SDS011;49136;47.416;19.402;2022-08-21T12:56:14;11.07;;;4.95;;
63050;SDS011;49136;47.416;19.402;2022-08-21T12:58:44;9.35;;;5.68;;
63050;SDS011;49136;47.416;19.402;2022-08-21T13:01:21;10.68;;;5.68;;
63050;SDS011;49136;47.416;19.402;2022-08-21T13:06:18;8.18;;;4.50;;
63050;SDS011;49136;47.416;19.402;2022-08-21T13:08:45;10.40;;;4.65;;
63050;SDS011;49136;47.416;19.402;2022-08-21T13:11:15;9.25;;;5.10;;
63050;SDS011;49136;47.416;19.402;2022-08-21T13:13:43;8.82;;;4.93;;
63050;SDS011;49136;47.416;19.402;2022-08-21T13:16:13;8.18;;;5.20;;
63050;SDS011;49136;47.416;19.402;2022-08-21T13:18:54;7.32;;;4.45;;
63050;SDS011;49136;47.416;19.402;2022-08-21T13:21:27;7.57;;;4.80;;
63050;SDS011;49136;47.416;19.402;2022-08-21T13:26:46;10.05;;;4.60;;
63050;SDS011;49136;47.416;19.402;2022-08-21T13:29:13;7.15;;;4.45;;
63050;SDS011;49136;47.416;19.402;2022-08-21T13:31:45;5.60;;;4.20;;
63050;SDS011;49136;47.416;19.402;2022-08-21T13:34:17;7.10;;;4.03;;
63050;SDS011;49136;47.416;19.402;2022-08-21T13:36:45;13.93;;;4.88;;
63050;SDS011;49136;47.416;19.402;2022-08-21T13:39:12;7.60;;;4.18;;
63050;SDS011;49136;47.416;19.402;2022-08-21T13:41:42;9.35;;;4.90;;
63050;SDS011;49136;47.416;19.402;2022-08-21T13:44:16;7.15;;;4.53;;
63050;SDS011;49136;47.416;19.402;2022-08-21T13:46:44;11.40;;;4.15;;
63050;SDS011;49136;47.416;19.402;2022-08-21T13:49:13;9.40;;;4.80;;
63050;SDS011;49136;47.416;19.402;2022-08-21T13:51:42;8.02;;;4.60;;
63050;SDS011;49136;47.416;19.402;2022-08-21T13:54:28;8.60;;;4.50;;
63050;SDS011;49136;47.416;19.402;2022-08-21T13:56:59;7.47;;;4.22;;
63050;SDS011;49136;47.416;19.402;2022-08-21T13:59:30;7.30;;;4.78;;
63050;SDS011;49136;47.416;19.402;2022-08-21T14:01:58;10.55;;;5.15;;
63050;SDS011;49136;47.416;19.402;2022-08-21T14:04:26;9.68;;;4.95;;
63050;SDS011;49136;47.416;19.402;2022-08-21T14:06:57;7.40;;;4.28;;
63050;SDS011;49136;47.416;19.402;2022-08-21T14:09:31;7.15;;;4.22;;
63050;SDS011;49136;47.416;19.402;2022-08-21T14:12:01;7.45;;;4.78;;
63050;SDS011;49136;47.416;19.402;2022-08-21T14:14:37;7.60;;;4.80;;
63050;SDS011;49136;47.416;19.402;2022-08-21T14:17:06;6.65;;;4.50;;
63050;SDS011;49136;47.416;19.402;2022-08-21T14:19:38;6.85;;;4.75;;
63050;SDS011;49136;47.416;19.402;2022-08-21T14:22:27;6.13;;;3.40;;
63050;SDS011;49136;47.416;19.402;2022-08-21T14:25:04;8.93;;;4.43;;
63050;SDS011;49136;47.416;19.402;2022-08-21T14:27:38;10.27;;;4.25;;
63050;SDS011;49136;47.416;19.402;2022-08-21T14:30:16;8.88;;;4.93;;
63050;SDS011;49136;47.416;19.402;2022-08-21T14:32:44;9.90;;;5.03;;
63050;SDS011;49136;47.416;19.402;2022-08-21T14:35:10;8.27;;;5.10;;
63050;SDS011;49136;47.416;19.402;2022-08-21T14:37:36;12.25;;;5.40;;
63050;SDS011;49136;47.416;19.402;2022-08-21T14:40:02;9.35;;;5.50;;
63050;SDS011;49136;47.416;19.402;2022-08-21T14:42:29;9.90;;;5.38;;
63050;SDS011;49136;47.416;19.402;2022-08-21T14:44:55;12.35;;;5.85;;
63050;SDS011;49136;47.416;19.402;2022-08-21T14:47:24;13.40;;;6.75;;
63050;SDS011;49136;47.416;19.402;2022-08-21T14:49:50;8.63;;;5.10;;
63050;SDS011;49136;47.416;19.402;2022-08-21T14:52:18;12.90;;;5.82;;
63050;SDS011;49136;47.416;19.402;2022-08-21T14:54:44;9.57;;;5.80;;
63050;SDS011;49136;47.416;19.402;2022-08-21T14:57:10;10.20;;;5.90;;
63050;SDS011;49136;47.416;19.402;2022-08-21T14:59:37;17.50;;;6.07;;
63050;SDS011;49136;47.416;19.402;2022-08-21T15:02:04;11.93;;;6.15;;
63050;SDS011;49136;47.416;19.402;2022-08-21T15:04:30;10.77;;;6.50;;
63050;SDS011;49136;47.416;19.402;2022-08-21T15:06:55;12.63;;;6.07;;
63050;SDS011;49136;47.416;19.402;2022-08-21T15:09:21;11.60;;;6.53;;
63050;SDS011;49136;47.416;19.402;2022-08-21T15:11:47;12.38;;;6.30;;
63050;SDS011;49136;47.416;19.402;2022-08-21T15:14:23;11.93;;;6.22;;
63050;SDS011;49136;47.416;19.402;2022-08-21T15:16:52;12.98;;;7.07;;
63050;SDS011;49136;47.416;19.402;2022-08-21T15:19:18;13.50;;;6.10;;
63050;SDS011;49136;47.416;19.402;2022-08-21T15:21:43;11.98;;;6.30;;
63050;SDS011;49136;47.416;19.402;2022-08-21T15:24:09;16.65;;;6.72;;
63050;SDS011;49136;47.416;19.402;2022-08-21T15:26:35;12.82;;;6.43;;
63050;SDS011;49136;47.416;19.402;2022-08-21T15:29:00;13.63;;;7.22;;
63050;SDS011;49136;47.416;19.402;2022-08-21T15:31:26;12.38;;;6.70;;
63050;SDS011;49136;47.416;19.402;2022-08-21T15:33:52;10.43;;;5.68;;
63050;SDS011;49136;47.416;19.402;2022-08-21T15:36:18;10.00;;;5.68;;
63050;SDS011;49136;47.416;19.402;2022-08-21T15:38:44;9.68;;;5.50;;
63050;SDS011;49136;47.416;19.402;2022-08-21T15:41:10;9.43;;;5.78;;
63050;SDS011;49136;47.416;19.402;2022-08-21T15:43:44;8.55;;;5.32;;
63050;SDS011;49136;47.416;19.402;2022-08-21T15:46:12;10.25;;;6.15;;
63050;SDS011;49136;47.416;19.402;2022-08-21T15:48:39;9.82;;;5.68;;
63050;SDS011;49136;47.416;19.402;2022-08-21T15:51:04;11.90;;;5.30;;
63050;SDS011;49136;47.416;19.402;2022-08-21T15:53:30;10.18;;;5.75;;
63050;SDS011;49136;47.416;19.402;2022-08-21T15:56:00;12.05;;;6.13;;
63050;SDS011;49136;47.416;19.402;2022-08-21T15:58:27;9.73;;;6.20;;
63050;SDS011;49136;47.416;19.402;2022-08-21T16:00:53;8.63;;;5.57;;
63050;SDS011;49136;47.416;19.402;2022-08-21T16:03:18;11.35;;;5.75;;
63050;SDS011;49136;47.416;19.402;2022-08-21T16:05:46;13.93;;;6.93;;
63050;SDS011;49136;47.416;19.402;2022-08-21T16:08:15;9.43;;;5.30;;
63050;SDS011;49136;47.416;19.402;2022-08-21T16:10:41;10.88;;;6.68;;
63050;SDS011;49136;47.416;19.402;2022-08-21T16:13:09;11.02;;;5.82;;
63050;SDS011;49136;47.416;19.402;2022-08-21T16:15:56;8.55;;;4.72;;
63050;SDS011;49136;47.416;19.402;2022-08-21T16:18:22;9.32;;;5.28;;
63050;SDS011;49136;47.416;19.402;2022-08-21T16:20:48;8.48;;;5.20;;